sensor_id;sensor_type;location;lat;lon;timestamp;pressure;altitude;pressure_sealevel;temperature;humidity
69035;BME280;56091;55.756;37.412;2023-03-19T00:01:43;100365.50;;;-1.38;44.37
69035;BME280;56091;55.756;37.412;2023-03-19T00:06:43;100358.31;;;-1.45;44.96
69035;BME280;56091;55.756;37.412;2023-03-19T00:11:45;100350.81;;;-1.50;44.87
69035;BME280;56091;55.756;37.412;2023-03-19T00:16:49;100344.81;;;-1.52;45.41
69035;BME280;56091;55.756;37.412;2023-03-19T00:21:50;100325.56;;;-1.62;45.32
69035;BME280;56091;55.756;37.412;2023-03-19T00:26:51;100339.47;;;-1.60;45.82
69035;BME280;56091;55.756;37.412;2023-03-19T00:31:52;100333.78;;;-1.65;45.54
69035;BME280;56091;55.756;37.412;2023-03-19T00:36:53;100310.34;;;-1.78;45.93
69035;BME280;56091;55.756;37.412;2023-03-19T00:41:55;100323.81;;;-1.71;46.39
69035;BME280;56091;55.756;37.412;2023-03-19T00:46:56;100317.16;;;-1.75;46.69
69035;BME280;56091;55.756;37.412;2023-03-19T00:52:03;100314.50;;;-1.75;46.77
69035;BME280;56091;55.756;37.412;2023-03-19T00:57:04;100310.63;;;-1.81;46.46
69035;BME280;56091;55.756;37.412;2023-03-19T01:02:07;100320.53;;;-1.83;46.93
69035;BME280;56091;55.756;37.412;2023-03-19T01:07:08;100315.41;;;-1.85;47.38
69035;BME280;56091;55.756;37.412;2023-03-19T01:12:09;100313.34;;;-1.91;47.53
69035;BME280;56091;55.756;37.412;2023-03-19T01:17:10;100304.06;;;-1.95;48.09
69035;BME280;56091;55.756;37.412;2023-03-19T01:22:11;100318.78;;;-1.92;48.53
69035;BME280;56091;55.756;37.412;2023-03-19T01:27:19;100294.75;;;-1.99;48.78
69035;BME280;56091;55.756;37.412;2023-03-19T01:32:20;100295.03;;;-2.02;48.78
69035;BME280;56091;55.756;37.412;2023-03-19T01:37:48;100305.63;;;-2.02;49.00
69035;BME280;56091;55.756;37.412;2023-03-19T01:42:55;100300.47;;;-2.04;49.77
69035;BME280;56091;55.756;37.412;2023-03-19T01:48:31;100297.97;;;-2.05;49.30
69035;BME280;56091;55.756;37.412;2023-03-19T01:53:44;100297.28;;;-2.07;49.48
69035;BME280;56091;55.756;37.412;2023-03-19T01:59:22;100275.66;;;-2.21;50.42
69035;BME280;56091;55.756;37.412;2023-03-19T02:04:48;100286.63;;;-2.16;49.93
69035;BME280;56091;55.756;37.412;2023-03-19T02:09:52;100278.16;;;-2.19;50.25
69035;BME280;56091;55.756;37.412;2023-03-19T02:14:53;100275.81;;;-2.22;50.70
69035;BME280;56091;55.756;37.412;2023-03-19T02:20:19;100259.56;;;-2.27;50.52
69035;BME280;56091;55.756;37.412;2023-03-19T02:25:31;100257.91;;;-2.28;51.07
69035;BME280;56091;55.756;37.412;2023-03-19T02:30:37;100247.38;;;-2.38;50.84
69035;BME280;56091;55.756;37.412;2023-03-19T02:35:44;100205.63;;;-2.62;50.90
69035;BME280;56091;55.756;37.412;2023-03-19T02:41:00;100253.63;;;-2.39;50.71
69035;BME280;56091;55.756;37.412;2023-03-19T02:46:03;100257.56;;;-2.43;51.08
69035;BME280;56091;55.756;37.412;2023-03-19T02:51:05;100226.50;;;-2.59;51.46
69035;BME280;56091;55.756;37.412;2023-03-19T02:56:06;100254.78;;;-2.42;51.29
69035;BME280;56091;55.756;37.412;2023-03-19T03:01:07;100247.97;;;-2.44;51.56
69035;BME280;56091;55.756;37.412;2023-03-19T03:06:08;100228.00;;;-2.57;51.83
69035;BME280;56091;55.756;37.412;2023-03-19T03:11:11;100239.94;;;-2.52;51.67
69035;BME280;56091;55.756;37.412;2023-03-19T03:16:12;100212.66;;;-2.71;51.91
69035;BME280;56091;55.756;37.412;2023-03-19T03:21:13;100234.84;;;-2.64;51.72
69035;BME280;56091;55.756;37.412;2023-03-19T03:26:14;100231.50;;;-2.66;51.62
69035;BME280;56091;55.756;37.412;2023-03-19T03:31:15;100236.78;;;-2.66;52.19
69035;BME280;56091;55.756;37.412;2023-03-19T03:36:17;100215.72;;;-2.76;52.33
69035;BME280;56091;55.756;37.412;2023-03-19T03:41:17;100242.75;;;-2.64;52.37
69035;BME280;56091;55.756;37.412;2023-03-19T03:46:18;100236.22;;;-2.60;52.21
69035;BME280;56091;55.756;37.412;2023-03-19T03:51:20;100229.94;;;-2.59;52.26
69035;BME280;56091;55.756;37.412;2023-03-19T03:56:21;100229.38;;;-2.52;51.86
69035;BME280;56091;55.756;37.412;2023-03-19T04:01:22;100228.78;;;-2.46;51.67
69035;BME280;56091;55.756;37.412;2023-03-19T04:06:28;100223.47;;;-2.37;52.58
69035;BME280;56091;55.756;37.412;2023-03-19T04:11:51;100220.88;;;-2.28;51.40
69035;BME280;56091;55.756;37.412;2023-03-19T04:16:52;100218.03;;;-2.35;51.05
69035;BME280;56091;55.756;37.412;2023-03-19T04:21:53;100216.81;;;-2.23;51.13
69035;BME280;56091;55.756;37.412;2023-03-19T04:26:54;100216.53;;;-2.20;50.98
69035;BME280;56091;55.756;37.412;2023-03-19T04:31:55;100211.63;;;-2.14;51.32
69035;BME280;56091;55.756;37.412;2023-03-19T04:36:56;100213.06;;;-2.02;50.55
69035;BME280;56091;55.756;37.412;2023-03-19T04:41:57;100203.78;;;-1.88;50.21
69035;BME280;56091;55.756;37.412;2023-03-19T04:47:07;100191.75;;;-1.83;49.88
69035;BME280;56091;55.756;37.412;2023-03-19T04:52:21;100201.81;;;-1.68;50.17
69035;BME280;56091;55.756;37.412;2023-03-19T04:57:23;100207.38;;;-1.53;49.82
69035;BME280;56091;55.756;37.412;2023-03-19T05:02:27;100201.91;;;-1.52;49.29
69035;BME280;56091;55.756;37.412;2023-03-19T05:07:28;100196.06;;;-1.38;49.61
69035;BME280;56091;55.756;37.412;2023-03-19T05:12:32;100200.69;;;-1.40;48.77
69035;BME280;56091;55.756;37.412;2023-03-19T05:17:33;100185.53;;;-1.29;48.79
69035;BME280;56091;55.756;37.412;2023-03-19T05:22:45;100181.94;;;-1.20;49.38
69035;BME280;56091;55.756;37.412;2023-03-19T05:27:47;100189.00;;;-1.03;48.83
69035;BME280;56091;55.756;37.412;2023-03-19T05:32:55;100179.13;;;-0.92;48.33
69035;BME280;56091;55.756;37.412;2023-03-19T05:38:19;100157.59;;;-0.89;48.13
69035;BME280;56091;55.756;37.412;2023-03-19T05:43:27;100165.28;;;-0.78;48.49
69035;BME280;56091;55.756;37.412;2023-03-19T05:48:29;100154.00;;;-0.80;48.60
69035;BME280;56091;55.756;37.412;2023-03-19T05:53:32;100159.50;;;-0.73;48.53
69035;BME280;56091;55.756;37.412;2023-03-19T05:58:54;100143.63;;;-0.65;48.65
69035;BME280;56091;55.756;37.412;2023-03-19T06:04:04;100154.44;;;-0.50;48.25
69035;BME280;56091;55.756;37.412;2023-03-19T06:09:05;100150.47;;;-0.54;48.45
69035;BME280;56091;55.756;37.412;2023-03-19T06:14:12;100144.50;;;-0.56;48.24
69035;BME280;56091;55.756;37.412;2023-03-19T06:19:20;100131.03;;;-0.63;47.99
69035;BME280;56091;55.756;37.412;2023-03-19T06:24:22;100135.03;;;-0.59;48.24
69035;BME280;56091;55.756;37.412;2023-03-19T06:29:25;100124.94;;;-0.55;47.90
69035;BME280;56091;55.756;37.412;2023-03-19T06:34:33;100132.28;;;-0.33;47.17
69035;BME280;56091;55.756;37.412;2023-03-19T06:39:35;100112.22;;;-0.19;46.94
69035;BME280;56091;55.756;37.412;2023-03-19T06:44:39;100121.03;;;0.14;47.06
69035;BME280;56091;55.756;37.412;2023-03-19T06:49:40;100101.78;;;0.21;46.33
69035;BME280;56091;55.756;37.412;2023-03-19T06:54:41;100107.94;;;0.29;45.82
69035;BME280;56091;55.756;37.412;2023-03-19T06:59:50;100110.69;;;0.52;45.44
69035;BME280;56091;55.756;37.412;2023-03-19T07:04:51;100100.22;;;0.67;44.92
69035;BME280;56091;55.756;37.412;2023-03-19T07:09:52;100100.91;;;0.61;44.73
69035;BME280;56091;55.756;37.412;2023-03-19T07:14:55;100092.41;;;0.66;44.87
69035;BME280;56091;55.756;37.412;2023-03-19T07:19:56;100081.09;;;0.72;44.81
69035;BME280;56091;55.756;37.412;2023-03-19T07:24:59;100087.66;;;1.01;44.48
69035;BME280;56091;55.756;37.412;2023-03-19T07:30:00;100083.53;;;1.21;44.75
69035;BME280;56091;55.756;37.412;2023-03-19T07:35:04;100077.03;;;1.32;44.51
69035;BME280;56091;55.756;37.412;2023-03-19T07:40:06;100083.88;;;1.49;44.01
69035;BME280;56091;55.756;37.412;2023-03-19T07:45:07;100073.66;;;1.61;43.73
69035;BME280;56091;55.756;37.412;2023-03-19T07:50:09;100068.25;;;1.54;43.83
69035;BME280;56091;55.756;37.412;2023-03-19T07:55:10;100073.16;;;1.66;43.69
69035;BME280;56091;55.756;37.412;2023-03-19T08:00:11;100052.69;;;1.66;43.53
69035;BME280;56091;55.756;37.412;2023-03-19T08:05:17;100062.13;;;1.92;43.41
69035;BME280;56091;55.756;37.412;2023-03-19T08:10:18;100047.00;;;1.92;43.00
69035;BME280;56091;55.756;37.412;2023-03-19T08:15:21;100049.41;;;2.02;42.53
69035;BME280;56091;55.756;37.412;2023-03-19T08:20:22;100047.25;;;2.21;42.85
69035;BME280;56091;55.756;37.412;2023-03-19T08:25:24;100033.19;;;2.27;42.93
69035;BME280;56091;55.756;37.412;2023-03-19T08:30:25;100018.00;;;2.12;43.68
69035;BME280;56091;55.756;37.412;2023-03-19T08:35:26;100022.25;;;2.07;43.81
69035;BME280;56091;55.756;37.412;2023-03-19T08:40:27;100008.47;;;2.18;44.30
69035;BME280;56091;55.756;37.412;2023-03-19T08:45:28;99927.31;;;1.69;44.39
69035;BME280;56091;55.756;37.412;2023-03-19T08:50:31;99999.50;;;2.34;44.36
69035;BME280;56091;55.756;37.412;2023-03-19T08:55:35;99980.13;;;2.55;43.67
69035;BME280;56091;55.756;37.412;2023-03-19T09:00:36;99904.19;;;2.29;42.96
69035;BME280;56091;55.756;37.412;2023-03-19T09:05:37;99977.41;;;2.85;42.96
69035;BME280;56091;55.756;37.412;2023-03-19T09:10:38;99967.38;;;2.87;42.67
69035;BME280;56091;55.756;37.412;2023-03-19T09:15:39;99960.22;;;2.87;42.91
69035;BME280;56091;55.756;37.412;2023-03-19T09:20:42;99961.63;;;3.05;42.71
69035;BME280;56091;55.756;37.412;2023-03-19T09:25:43;99955.66;;;3.03;41.97
69035;BME280;56091;55.756;37.412;2023-03-19T09:30:48;99962.25;;;3.07;42.49
69035;BME280;56091;55.756;37.412;2023-03-19T09:35:51;99957.81;;;3.14;42.49
69035;BME280;56091;55.756;37.412;2023-03-19T09:41:07;99946.53;;;3.33;42.78
69035;BME280;56091;55.756;37.412;2023-03-19T09:46:14;99961.94;;;3.60;42.10
69035;BME280;56091;55.756;37.412;2023-03-19T09:51:22;99948.78;;;3.58;41.51
69035;BME280;56091;55.756;37.412;2023-03-19T09:56:26;99938.97;;;3.59;41.69
69035;BME280;56091;55.756;37.412;2023-03-19T10:01:38;99930.81;;;3.67;41.71
69035;BME280;56091;55.756;37.412;2023-03-19T10:06:40;99918.44;;;3.38;42.17
69035;BME280;56091;55.756;37.412;2023-03-19T10:12:02;99920.69;;;3.62;42.79
69035;BME280;56091;55.756;37.412;2023-03-19T10:17:15;99914.28;;;3.85;42.30
69035;BME280;56091;55.756;37.412;2023-03-19T10:22:24;99912.03;;;3.82;42.18
69035;BME280;56091;55.756;37.412;2023-03-19T10:27:27;99888.47;;;3.92;42.26
69035;BME280;56091;55.756;37.412;2023-03-19T10:32:42;99909.56;;;3.87;42.14
69035;BME280;56091;55.756;37.412;2023-03-19T10:37:43;99892.94;;;3.85;41.92
69035;BME280;56091;55.756;37.412;2023-03-19T10:43:15;99895.09;;;4.03;42.21
69035;BME280;56091;55.756;37.412;2023-03-19T10:48:17;99879.84;;;3.90;42.65
69035;BME280;56091;55.756;37.412;2023-03-19T10:53:37;99882.34;;;3.98;42.33
69035;BME280;56091;55.756;37.412;2023-03-19T10:58:38;99878.22;;;3.96;42.88
69035;BME280;56091;55.756;37.412;2023-03-19T11:03:51;99882.34;;;3.98;44.23
69035;BME280;56091;55.756;37.412;2023-03-19T11:08:57;99874.38;;;4.05;43.18
69035;BME280;56091;55.756;37.412;2023-03-19T11:14:08;99867.41;;;4.10;43.86
69035;BME280;56091;55.756;37.412;2023-03-19T11:19:21;99870.16;;;4.24;44.26
69035;BME280;56091;55.756;37.412;2023-03-19T11:24:22;99859.03;;;4.14;43.39
69035;BME280;56091;55.756;37.412;2023-03-19T11:29:25;99849.66;;;3.89;44.00
69035;BME280;56091;55.756;37.412;2023-03-19T11:45:26;99849.72;;;4.03;43.46
69035;BME280;56091;55.756;37.412;2023-03-19T11:50:52;99849.91;;;3.95;42.65
69035;BME280;56091;55.756;37.412;2023-03-19T12:38:36;99766.88;;;4.51;40.93
69035;BME280;56091;55.756;37.412;2023-03-19T12:49:20;99745.28;;;4.53;41.23
69035;BME280;56091;55.756;37.412;2023-03-19T12:54:32;99742.22;;;4.62;41.94
69035;BME280;56091;55.756;37.412;2023-03-19T13:10:13;99734.81;;;4.58;41.23
69035;BME280;56091;55.756;37.412;2023-03-19T13:26:07;99722.06;;;4.66;40.48
69035;BME280;56091;55.756;37.412;2023-03-19T13:31:23;99720.63;;;4.64;40.29
69035;BME280;56091;55.756;37.412;2023-03-19T13:36:26;99722.91;;;4.74;40.94
69035;BME280;56091;55.756;37.412;2023-03-19T13:46:36;99691.22;;;4.91;40.72
69035;BME280;56091;55.756;37.412;2023-03-19T13:51:37;99692.66;;;5.00;41.03
69035;BME280;56091;55.756;37.412;2023-03-19T14:02:02;99687.72;;;5.03;41.61
69035;BME280;56091;55.756;37.412;2023-03-19T14:07:24;99680.94;;;5.01;41.83
69035;BME280;56091;55.756;37.412;2023-03-19T14:12:35;99685.66;;;5.05;40.55
69035;BME280;56091;55.756;37.412;2023-03-19T14:17:45;99672.84;;;5.27;40.82
69035;BME280;56091;55.756;37.412;2023-03-19T14:28:09;99667.31;;;5.74;39.56
69035;BME280;56091;55.756;37.412;2023-03-19T14:33:19;99647.34;;;5.77;39.25
69035;BME280;56091;55.756;37.412;2023-03-19T14:38:31;99650.00;;;5.77;38.99
69035;BME280;56091;55.756;37.412;2023-03-19T14:49:34;99638.63;;;11.00;29.75
69035;BME280;56091;55.756;37.412;2023-03-19T14:54:47;99640.41;;;12.32;27.79
69035;BME280;56091;55.756;37.412;2023-03-19T14:59:50;99646.09;;;12.68;27.16
69035;BME280;56091;55.756;37.412;2023-03-19T15:04:52;99630.75;;;12.09;27.69
69035;BME280;56091;55.756;37.412;2023-03-19T15:09:54;99625.44;;;10.82;29.72
69035;BME280;56091;55.756;37.412;2023-03-19T15:15:38;99647.88;;;8.39;33.49
69035;BME280;56091;55.756;37.412;2023-03-19T15:20:42;99636.63;;;6.84;36.69
69035;BME280;56091;55.756;37.412;2023-03-19T15:25:48;99647.44;;;5.95;38.53
69035;BME280;56091;55.756;37.412;2023-03-19T15:31:01;99649.00;;;5.19;40.34
69035;BME280;56091;55.756;37.412;2023-03-19T15:41:06;99646.66;;;4.31;42.96
69035;BME280;56091;55.756;37.412;2023-03-19T15:46:15;99633.47;;;3.96;43.81
69035;BME280;56091;55.756;37.412;2023-03-19T15:51:19;99649.66;;;3.81;44.23
69035;BME280;56091;55.756;37.412;2023-03-19T15:56:22;99650.41;;;3.62;44.72
69035;BME280;56091;55.756;37.412;2023-03-19T16:01:25;99643.41;;;3.47;45.87
69035;BME280;56091;55.756;37.412;2023-03-19T16:06:28;99641.69;;;3.33;45.90
69035;BME280;56091;55.756;37.412;2023-03-19T16:11:44;99621.06;;;3.07;46.35
69035;BME280;56091;55.756;37.412;2023-03-19T16:16:46;99639.53;;;3.08;47.19
69035;BME280;56091;55.756;37.412;2023-03-19T16:21:47;99615.22;;;2.83;46.98
69035;BME280;56091;55.756;37.412;2023-03-19T16:26:51;99637.34;;;2.84;47.93
69035;BME280;56091;55.756;37.412;2023-03-19T16:32:01;99642.22;;;2.80;47.96
69035;BME280;56091;55.756;37.412;2023-03-19T16:42:46;99641.97;;;2.68;48.55
69035;BME280;56091;55.756;37.412;2023-03-19T16:47:53;99636.38;;;2.63;48.38
69035;BME280;56091;55.756;37.412;2023-03-19T16:52:55;99635.09;;;2.52;48.86
69035;BME280;56091;55.756;37.412;2023-03-19T16:58:14;99626.47;;;2.50;49.05
69035;BME280;56091;55.756;37.412;2023-03-19T17:03:16;99625.59;;;2.43;48.88
69035;BME280;56091;55.756;37.412;2023-03-19T17:08:17;99624.13;;;2.41;49.22
69035;BME280;56091;55.756;37.412;2023-03-19T17:13:22;99625.53;;;2.37;49.12
69035;BME280;56091;55.756;37.412;2023-03-19T17:18:30;99628.78;;;2.32;49.38
69035;BME280;56091;55.756;37.412;2023-03-19T17:23:32;99612.91;;;2.17;49.27
69035;BME280;56091;55.756;37.412;2023-03-19T17:28:33;99626.66;;;2.21;49.34
69035;BME280;56091;55.756;37.412;2023-03-19T17:33:35;99617.31;;;2.10;49.68
69035;BME280;56091;55.756;37.412;2023-03-19T17:38:36;99615.56;;;2.17;49.24
69035;BME280;56091;55.756;37.412;2023-03-19T17:43:36;99608.09;;;2.06;49.16
69035;BME280;56091;55.756;37.412;2023-03-19T17:48:40;99622.84;;;2.08;49.48
69035;BME280;56091;55.756;37.412;2023-03-19T17:53:48;99612.97;;;2.02;49.62
69035;BME280;56091;55.756;37.412;2023-03-19T17:58:49;99613.34;;;1.99;50.14
69035;BME280;56091;55.756;37.412;2023-03-19T18:03:50;99584.72;;;1.80;50.36
69035;BME280;56091;55.756;37.412;2023-03-19T18:09:02;99617.16;;;1.90;50.91
69035;BME280;56091;55.756;37.412;2023-03-19T18:14:03;99618.53;;;1.86;51.54
69035;BME280;56091;55.756;37.412;2023-03-19T18:19:22;99610.50;;;1.79;52.11
69035;BME280;56091;55.756;37.412;2023-03-19T18:24:27;99601.81;;;1.70;52.65
69035;BME280;56091;55.756;37.412;2023-03-19T18:29:28;99607.31;;;1.69;53.06
69035;BME280;56091;55.756;37.412;2023-03-19T18:34:29;99599.66;;;1.59;53.49
69035;BME280;56091;55.756;37.412;2023-03-19T18:39:30;99602.50;;;1.58;53.62
69035;BME280;56091;55.756;37.412;2023-03-19T18:44:35;99606.75;;;1.52;53.94
69035;BME280;56091;55.756;37.412;2023-03-19T18:49:36;99577.28;;;1.32;54.38
69035;BME280;56091;55.756;37.412;2023-03-19T18:54:40;99600.44;;;1.38;54.87
69035;BME280;56091;55.756;37.412;2023-03-19T18:59:41;99604.75;;;1.39;55.16
69035;BME280;56091;55.756;37.412;2023-03-19T19:04:42;99602.66;;;1.34;55.68
69035;BME280;56091;55.756;37.412;2023-03-19T19:09:43;99597.25;;;1.28;55.88
69035;BME280;56091;55.756;37.412;2023-03-19T19:14:46;99593.16;;;1.25;55.98
69035;BME280;56091;55.756;37.412;2023-03-19T19:19:50;99590.41;;;1.19;56.28
69035;BME280;56091;55.756;37.412;2023-03-19T19:24:50;99587.47;;;1.13;56.96
69035;BME280;56091;55.756;37.412;2023-03-19T19:29:51;99591.53;;;1.09;57.15
69035;BME280;56091;55.756;37.412;2023-03-19T19:34:52;99576.63;;;0.93;57.25
69035;BME280;56091;55.756;37.412;2023-03-19T19:39:53;99586.50;;;1.00;57.49
69035;BME280;56091;55.756;37.412;2023-03-19T19:44:55;99586.03;;;0.96;57.43
69035;BME280;56091;55.756;37.412;2023-03-19T19:49:59;99583.56;;;0.94;57.38
69035;BME280;56091;55.756;37.412;2023-03-19T19:55:01;99577.63;;;0.92;57.82
69035;BME280;56091;55.756;37.412;2023-03-19T20:00:02;99576.50;;;0.87;57.83
69035;BME280;56091;55.756;37.412;2023-03-19T20:05:23;99577.91;;;0.83;57.82
69035;BME280;56091;55.756;37.412;2023-03-19T20:10:27;99577.81;;;0.76;58.30
69035;BME280;56091;55.756;37.412;2023-03-19T20:15:33;99573.06;;;0.71;58.14
69035;BME280;56091;55.756;37.412;2023-03-19T20:20:35;99561.44;;;0.57;58.35
69035;BME280;56091;55.756;37.412;2023-03-19T20:25:36;99541.28;;;0.48;58.20
69035;BME280;56091;55.756;37.412;2023-03-19T20:30:42;99567.84;;;0.63;58.56
69035;BME280;56091;55.756;37.412;2023-03-19T20:35:43;99569.22;;;0.59;58.60
69035;BME280;56091;55.756;37.412;2023-03-19T20:40:51;99562.41;;;0.56;58.57
69035;BME280;56091;55.756;37.412;2023-03-19T20:45:52;99562.16;;;0.51;59.00
69035;BME280;56091;55.756;37.412;2023-03-19T20:50:54;99564.34;;;0.48;58.80
69035;BME280;56091;55.756;37.412;2023-03-19T20:55:55;99556.94;;;0.43;58.50
69035;BME280;56091;55.756;37.412;2023-03-19T21:00:57;99570.19;;;0.43;58.42
69035;BME280;56091;55.756;37.412;2023-03-19T21:06:08;99537.69;;;0.26;58.59
69035;BME280;56091;55.756;37.412;2023-03-19T21:11:20;99546.13;;;0.30;58.82
69035;BME280;56091;55.756;37.412;2023-03-19T21:16:23;99563.06;;;0.29;58.91
69035;BME280;56091;55.756;37.412;2023-03-19T21:21:31;99551.06;;;0.18;59.29
69035;BME280;56091;55.756;37.412;2023-03-19T21:26:37;99543.25;;;0.16;59.44
69035;BME280;56091;55.756;37.412;2023-03-19T21:31:39;99536.31;;;0.15;59.85
69035;BME280;56091;55.756;37.412;2023-03-19T21:36:40;99550.22;;;0.17;59.63
69035;BME280;56091;55.756;37.412;2023-03-19T21:41:41;99550.03;;;0.04;59.71
69035;BME280;56091;55.756;37.412;2023-03-19T21:46:43;99542.13;;;-0.04;60.25
69035;BME280;56091;55.756;37.412;2023-03-19T21:51:45;99541.00;;;-0.10;60.68
69035;BME280;56091;55.756;37.412;2023-03-19T21:56:46;99509.19;;;-0.25;60.87
69035;BME280;56091;55.756;37.412;2023-03-19T22:01:47;99539.47;;;-0.04;61.02
69035;BME280;56091;55.756;37.412;2023-03-19T22:06:48;99535.81;;;-0.03;60.94
69035;BME280;56091;55.756;37.412;2023-03-19T22:11:49;99524.63;;;-0.13;60.86
69035;BME280;56091;55.756;37.412;2023-03-19T22:16:52;99530.84;;;-0.21;61.10
69035;BME280;56091;55.756;37.412;2023-03-19T22:21:53;99530.25;;;-0.31;61.40
69035;BME280;56091;55.756;37.412;2023-03-19T22:26:56;99530.81;;;-0.36;61.98
69035;BME280;56091;55.756;37.412;2023-03-19T22:31:57;99530.44;;;-0.33;62.03
69035;BME280;56091;55.756;37.412;2023-03-19T22:36:58;99511.66;;;-0.46;61.98
69035;BME280;56091;55.756;37.412;2023-03-19T22:41:59;99527.78;;;-0.33;62.04
69035;BME280;56091;55.756;37.412;2023-03-19T22:47:00;99523.84;;;-0.37;62.17
69035;BME280;56091;55.756;37.412;2023-03-19T22:52:02;99525.94;;;-0.47;62.65
69035;BME280;56091;55.756;37.412;2023-03-19T22:57:02;99522.16;;;-0.53;63.15
69035;BME280;56091;55.756;37.412;2023-03-19T23:02:03;99512.38;;;-0.52;63.00
69035;BME280;56091;55.756;37.412;2023-03-19T23:07:04;99504.50;;;-0.61;63.15
69035;BME280;56091;55.756;37.412;2023-03-19T23:12:05;99499.00;;;-0.59;63.30
69035;BME280;56091;55.756;37.412;2023-03-19T23:17:14;99493.59;;;-0.66;63.55
69035;BME280;56091;55.756;37.412;2023-03-19T23:22:16;99479.38;;;-0.73;63.53
69035;BME280;56091;55.756;37.412;2023-03-19T23:27:23;99494.22;;;-0.64;63.99
69035;BME280;56091;55.756;37.412;2023-03-19T23:32:27;99496.59;;;-0.69;63.85
69035;BME280;56091;55.756;37.412;2023-03-19T23:37:28;99490.41;;;-0.61;63.81
69035;BME280;56091;55.756;37.412;2023-03-19T23:42:30;99482.81;;;-0.64;64.12
69035;BME280;56091;55.756;37.412;2023-03-19T23:47:31;99477.22;;;-0.69;64.10
69035;BME280;56091;55.756;37.412;2023-03-19T23:52:33;99488.94;;;-0.64;64.17
69035;BME280;56091;55.756;37.412;2023-03-19T23:57:36;99430.53;;;-0.93;64.27
